Time;durP1;ratioP1;P1;durP2;ratioP2;P2;SDS_P1;SDS_P2;PMS_P1;PMS_P2;Temp;Humidity;BMP_temperature;BMP_pressure;BME280_temperature;BME280_humidity;BME280_pressure;Samples;Min_cycle;Max_cycle;Signal;HPM_P1;HPM_P2
2023/09/22 00:01:12;;;;;;;1.80;0.97;;;24.70;58.90;;;;;;5073440;28;20428;-67
2023/09/22 00:03:37;;;;;;;2.00;1.00;;;24.70;58.90;;;;;;5073264;28;20503;-67
2023/09/22 00:06:03;;;;;;;1.90;1.07;;;24.70;58.90;;;;;;5073089;28;20185;-69
2023/09/22 00:08:30;;;;;;;2.93;1.50;;;24.70;58.90;;;;;;5073561;28;20268;-69
2023/09/22 00:10:55;;;;;;;1.80;1.07;;;24.60;58.80;;;;;;5073443;28;20171;-68
2023/09/22 00:13:21;;;;;;;2.50;0.93;;;24.60;58.90;;;;;;5073106;28;20862;-69
2023/09/22 00:15:47;;;;;;;2.93;1.20;;;24.60;58.90;;;;;;5073211;28;20167;-68
2023/09/22 00:18:12;;;;;;;2.10;1.03;;;24.60;58.90;;;;;;5073202;28;20165;-68
2023/09/22 00:20:38;;;;;;;1.80;1.43;;;24.60;58.90;;;;;;5072671;28;21033;-69
2023/09/22 00:23:04;;;;;;;1.40;0.90;;;24.60;58.90;;;;;;5072564;28;20201;-68
2023/09/22 00:25:31;;;;;;;1.27;1.00;;;24.60;58.90;;;;;;5073043;28;20879;-67
2023/09/22 00:27:56;;;;;;;1.43;0.90;;;24.60;58.90;;;;;;5073266;28;20182;-67
2023/09/22 00:30:22;;;;;;;1.60;1.17;;;24.60;59.00;;;;;;5072970;28;20440;-68
2023/09/22 00:32:48;;;;;;;1.10;0.90;;;24.60;58.90;;;;;;5072734;28;20202;-69
2023/09/22 00:35:14;;;;;;;2.23;1.23;;;24.60;58.90;;;;;;5072829;28;20175;-67
2023/09/22 00:37:40;;;;;;;3.00;1.00;;;24.60;58.90;;;;;;5072855;28;20400;-69
2023/09/22 00:40:12;;;;;;;1.20;0.90;;;24.60;58.90;;;;;;5072719;28;20944;-69
2023/09/22 00:42:38;;;;;;;1.80;0.87;;;24.60;59.00;;;;;;5072816;28;20503;-68
2023/09/22 00:45:04;;;;;;;2.20;1.03;;;24.60;58.90;;;;;;5072710;28;20405;-69
2023/09/22 00:47:30;;;;;;;1.13;1.00;;;24.60;58.90;;;;;;5072662;28;20205;-67
2023/09/22 00:49:56;;;;;;;1.20;0.83;;;24.60;59.00;;;;;;5072591;28;20907;-68
2023/09/22 00:52:23;;;;;;;1.87;0.80;;;24.60;59.00;;;;;;5072648;28;20831;-69
2023/09/22 00:54:49;;;;;;;1.00;0.80;;;24.60;58.90;;;;;;5071865;28;20400;-69
2023/09/22 00:57:16;;;;;;;1.40;0.90;;;24.60;58.90;;;;;;5072395;28;20439;-68
2023/09/22 00:59:43;;;;;;;1.33;0.80;;;24.60;58.90;;;;;;5072360;28;20409;-69
2023/09/22 01:02:11;;;;;;;1.80;1.07;;;24.60;58.90;;;;;;5072217;28;20435;-69
2023/09/22 01:04:36;;;;;;;2.17;0.80;;;24.60;58.90;;;;;;5072261;28;20412;-68
2023/09/22 01:07:03;;;;;;;1.00;0.80;;;24.60;59.00;;;;;;5072226;28;21208;-68
2023/09/22 01:09:29;;;;;;;1.20;0.87;;;24.60;58.90;;;;;;5072475;28;20177;-67
2023/09/22 01:11:54;;;;;;;1.60;0.90;;;24.60;59.00;;;;;;5072055;28;20420;-69
2023/09/22 01:14:20;;;;;;;2.03;0.80;;;24.60;59.00;;;;;;5071996;28;20198;-67
2023/09/22 01:16:46;;;;;;;1.87;0.87;;;24.60;59.00;;;;;;5072015;28;20166;-68
2023/09/22 01:19:16;;;;;;;1.30;0.90;;;24.60;59.00;;;;;;5071996;28;20854;-68
2023/09/22 01:21:49;;;;;;;1.03;0.70;;;24.60;59.60;;;;;;5071797;28;20185;-69
2023/09/22 01:24:15;;;;;;;2.00;0.93;;;24.60;59.00;;;;;;5072472;28;21084;-68
2023/09/22 01:26:41;;;;;;;2.00;0.90;;;24.60;59.00;;;;;;5072097;28;20428;-67
2023/09/22 01:29:07;;;;;;;1.70;0.90;;;24.60;58.90;;;;;;5071737;28;20249;-68
2023/09/22 01:31:36;;;;;;;1.33;0.90;;;24.60;58.90;;;;;;5071543;28;20181;-69
2023/09/22 01:34:02;;;;;;;1.43;0.87;;;24.60;59.00;;;;;;5071562;28;20479;-69
2023/09/22 01:36:28;;;;;;;0.90;0.70;;;24.60;58.90;;;;;;5071629;28;20583;-69
2023/09/22 01:38:55;;;;;;;1.10;0.87;;;24.60;58.90;;;;;;5071519;28;20480;-67
2023/09/22 01:41:21;;;;;;;1.33;0.93;;;24.60;58.90;;;;;;5070276;28;20412;-69
2023/09/22 01:43:47;;;;;;;2.40;0.93;;;24.60;58.90;;;;;;5070126;28;20463;-68
2023/09/22 01:46:12;;;;;;;1.00;0.80;;;24.60;58.90;;;;;;5071711;28;20265;-68
2023/09/22 01:48:38;;;;;;;1.20;0.70;;;24.50;58.80;;;;;;5071393;28;20647;-67
2023/09/22 01:51:03;;;;;;;3.00;1.00;;;24.50;58.80;;;;;;5071343;28;20174;-69
2023/09/22 01:53:29;;;;;;;1.00;0.80;;;24.50;58.80;;;;;;5071392;28;20656;-68
2023/09/22 01:55:55;;;;;;;1.20;0.80;;;24.50;58.80;;;;;;5071235;28;20189;-68
2023/09/22 01:58:21;;;;;;;1.07;0.80;;;24.50;58.80;;;;;;5071190;28;20682;-68
2023/09/22 02:00:48;;;;;;;1.13;0.90;;;24.50;58.80;;;;;;5071143;28;20415;-68
2023/09/22 02:03:14;;;;;;;1.73;1.00;;;24.50;58.80;;;;;;5071077;28;20247;-68
2023/09/22 02:05:40;;;;;;;1.10;0.80;;;24.50;58.70;;;;;;5070400;28;20471;-67
2023/09/22 02:08:07;;;;;;;1.20;0.90;;;24.50;58.70;;;;;;5069347;28;21245;-65
2023/09/22 02:10:33;;;;;;;1.83;0.90;;;24.50;58.70;;;;;;5071342;28;20940;-67
2023/09/22 02:12:58;;;;;;;1.53;0.87;;;24.50;58.70;;;;;;5070883;28;20451;-69
2023/09/22 02:15:24;;;;;;;1.37;0.80;;;24.50;58.70;;;;;;5070962;28;20176;-68
2023/09/22 02:17:49;;;;;;;1.20;0.77;;;24.50;58.60;;;;;;5070934;28;20183;-68
2023/09/22 02:20:18;;;;;;;1.43;1.10;;;24.50;58.60;;;;;;5070811;28;20211;-69
2023/09/22 02:22:45;;;;;;;1.10;0.70;;;24.50;58.60;;;;;;5070885;28;20269;-69
2023/09/22 02:25:12;;;;;;;1.00;0.70;;;24.50;58.50;;;;;;5070813;28;21072;-68
2023/09/22 02:27:37;;;;;;;1.10;0.80;;;24.50;58.50;;;;;;5070873;28;20495;-69
2023/09/22 02:30:04;;;;;;;1.30;0.93;;;24.50;58.50;;;;;;5070852;28;20988;-69
2023/09/22 02:32:29;;;;;;;2.03;1.10;;;24.50;58.50;;;;;;5070712;28;20223;-68
2023/09/22 02:34:56;;;;;;;1.13;0.80;;;24.50;58.50;;;;;;5070750;28;20932;-69
2023/09/22 02:37:22;;;;;;;1.23;0.83;;;24.50;58.50;;;;;;5070734;28;20158;-68
2023/09/22 02:39:47;;;;;;;1.20;0.90;;;24.50;58.80;;;;;;5070726;28;20416;-67
2023/09/22 02:42:14;;;;;;;1.87;1.00;;;24.50;58.40;;;;;;5069283;28;20232;-66
2023/09/22 02:44:40;;;;;;;1.50;0.80;;;24.40;58.40;;;;;;5070922;28;20201;-69
2023/09/22 02:47:05;;;;;;;1.10;0.80;;;24.50;58.40;;;;;;5070627;28;20404;-66
2023/09/22 02:49:31;;;;;;;1.77;0.90;;;24.40;58.40;;;;;;5070639;28;20764;-70
2023/09/22 02:51:57;;;;;;;1.47;1.10;;;24.40;58.40;;;;;;5070535;28;20221;-68
2023/09/22 02:54:23;;;;;;;5.80;1.00;;;24.40;58.50;;;;;;5069086;28;20293;-68
2023/09/22 02:56:49;;;;;;;1.47;0.90;;;24.50;58.50;;;;;;5070591;28;20185;-68
2023/09/22 02:59:15;;;;;;;1.20;0.80;;;24.40;58.40;;;;;;5070609;28;20409;-68
2023/09/22 03:01:41;;;;;;;1.30;0.90;;;24.40;58.40;;;;;;5070583;28;20401;-69
2023/09/22 03:04:10;;;;;;;1.33;1.00;;;24.40;58.40;;;;;;5070656;28;20170;-69
2023/09/22 03:06:37;;;;;;;1.00;0.80;;;24.40;58.40;;;;;;5070779;28;20416;-68
2023/09/22 03:09:06;;;;;;;1.93;0.90;;;24.40;58.30;;;;;;5070730;28;20416;-68
2023/09/22 03:11:38;;;;;;;1.63;0.80;;;24.40;58.40;;;;;;5070405;28;20862;-68
2023/09/22 03:14:04;;;;;;;1.77;0.80;;;24.40;58.40;;;;;;5069018;28;20467;-68
2023/09/22 03:16:30;;;;;;;1.60;1.50;;;24.40;58.30;;;;;;5070373;28;20487;-68
2023/09/22 03:18:56;;;;;;;1.60;0.90;;;24.40;58.30;;;;;;5073807;28;20166;-68
2023/09/22 03:21:23;;;;;;;1.10;0.80;;;24.40;58.20;;;;;;5074292;28;20436;-68
2023/09/22 03:23:49;;;;;;;0.97;0.70;;;24.40;58.20;;;;;;5074188;28;20201;-68
2023/09/22 03:26:15;;;;;;;1.40;0.80;;;24.40;58.20;;;;;;5074114;28;20412;-69
2023/09/22 03:28:41;;;;;;;1.30;1.00;;;24.40;58.20;;;;;;5074206;28;20794;-68
2023/09/22 03:31:07;;;;;;;1.80;1.03;;;24.40;58.20;;;;;;5074312;28;20412;-67
2023/09/22 03:33:33;;;;;;;0.93;0.80;;;24.40;58.10;;;;;;5073910;28;20206;-67
2023/09/22 03:35:58;;;;;;;1.30;0.97;;;24.40;58.10;;;;;;5073968;28;20246;-68
2023/09/22 03:38:25;;;;;;;2.67;0.97;;;24.40;58.10;;;;;;5073953;28;20221;-68
2023/09/22 03:40:54;;;;;;;1.47;0.87;;;24.40;58.10;;;;;;5074152;28;20174;-69
2023/09/22 03:43:19;;;;;;;1.20;0.80;;;24.40;58.10;;;;;;5072464;28;20966;-68
2023/09/22 03:45:45;;;;;;;1.63;1.10;;;24.40;58.10;;;;;;5073776;28;20491;-67
2023/09/22 03:48:11;;;;;;;1.93;0.90;;;24.30;57.90;;;;;;5073980;28;20178;-70
2023/09/22 03:50:36;;;;;;;1.20;0.80;;;24.30;57.90;;;;;;5073692;28;20557;-70
2023/09/22 03:53:02;;;;;;;1.30;0.90;;;24.30;58.00;;;;;;5073426;28;20460;-67
2023/09/22 03:55:28;;;;;;;1.83;1.20;;;24.30;58.00;;;;;;5073586;28;20204;-68
2023/09/22 03:57:53;;;;;;;2.90;1.33;;;24.30;58.00;;;;;;5073521;28;20269;-67
2023/09/22 04:00:24;;;;;;;1.17;0.90;;;24.30;58.00;;;;;;5073462;28;20173;-69
2023/09/22 04:02:50;;;;;;;1.47;0.87;;;24.30;58.00;;;;;;5072785;28;20222;-68
2023/09/22 04:05:16;;;;;;;1.30;0.93;;;24.30;58.00;;;;;;5073742;28;20455;-69
2023/09/22 04:07:41;;;;;;;1.63;1.00;;;24.30;58.00;;;;;;5070129;28;20183;-69
2023/09/22 04:10:08;;;;;;;1.40;1.10;;;24.30;58.00;;;;;;5071946;28;20178;-68
2023/09/22 04:12:35;;;;;;;1.30;0.90;;;24.30;58.00;;;;;;5072231;28;20194;-69
2023/09/22 04:15:05;;;;;;;2.43;1.00;;;24.30;58.00;;;;;;5073167;28;20401;-68
2023/09/22 04:17:31;;;;;;;12.53;2.23;;;24.30;58.00;;;;;;5073320;28;20423;-69
2023/09/22 04:19:58;;;;;;;2.33;1.10;;;24.30;58.00;;;;;;5073358;28;20822;-68
2023/09/22 04:22:23;;;;;;;1.47;1.17;;;24.30;57.90;;;;;;5073020;28;20194;-69
2023/09/22 04:24:51;;;;;;;2.77;1.00;;;24.30;57.90;;;;;;5073328;28;20409;-67
2023/09/22 04:27:16;;;;;;;2.30;0.90;;;24.30;57.90;;;;;;5073433;28;20178;-69
2023/09/22 04:29:42;;;;;;;1.00;0.90;;;24.30;57.90;;;;;;5071927;28;20488;-69
2023/09/22 04:32:08;;;;;;;1.20;0.90;;;24.30;57.90;;;;;;5072975;28;20194;-68
2023/09/22 04:34:35;;;;;;;1.30;1.00;;;24.30;58.20;;;;;;5072927;28;20478;-68
2023/09/22 04:37:02;;;;;;;1.20;0.80;;;24.30;57.90;;;;;;5072952;28;20185;-69
2023/09/22 04:39:31;;;;;;;1.20;1.10;;;24.30;58.00;;;;;;5072938;28;20424;-68
2023/09/22 04:41:57;;;;;;;1.50;0.90;;;24.30;58.00;;;;;;5072793;28;20482;-68
2023/09/22 04:44:23;;;;;;;1.90;1.17;;;24.30;58.10;;;;;;5072897;28;20912;-69
2023/09/22 04:46:49;;;;;;;1.20;0.90;;;24.30;58.10;;;;;;5072728;28;20508;-69
2023/09/22 04:49:15;;;;;;;1.40;1.10;;;24.30;58.10;;;;;;5072680;28;20174;-69
2023/09/22 04:51:40;;;;;;;1.60;1.03;;;24.30;58.30;;;;;;5072334;28;20182;-69
2023/09/22 04:54:06;;;;;;;1.87;1.07;;;24.30;58.10;;;;;;5072428;28;20212;-69
2023/09/22 04:56:32;;;;;;;1.47;0.90;;;24.30;58.20;;;;;;5072524;28;20224;-68
2023/09/22 04:58:57;;;;;;;1.40;0.93;;;24.30;58.20;;;;;;5072383;28;20182;-69
2023/09/22 05:01:26;;;;;;;1.63;1.00;;;24.30;58.20;;;;;;5072803;28;20648;-68
2023/09/22 05:03:52;;;;;;;1.90;1.10;;;24.30;58.20;;;;;;5072125;28;20198;-68
2023/09/22 05:06:17;;;;;;;1.40;1.10;;;24.30;58.20;;;;;;5072479;28;20474;-69
2023/09/22 05:08:43;;;;;;;1.50;0.90;;;24.30;58.20;;;;;;5072216;28;20253;-68
2023/09/22 05:11:08;;;;;;;1.80;1.00;;;24.30;58.20;;;;;;5072179;28;20183;-68
2023/09/22 05:13:35;;;;;;;1.87;1.10;;;24.30;58.20;;;;;;5071965;28;20248;-69
2023/09/22 05:16:13;;;;;;;1.60;1.00;;;24.30;58.20;;;;;;5072179;28;20175;-69
2023/09/22 05:18:39;;;;;;;1.20;0.87;;;24.30;58.20;;;;;;5071789;28;20423;-68
2023/09/22 05:21:05;;;;;;;1.83;1.20;;;24.30;58.20;;;;;;5071849;28;20462;-68
2023/09/22 05:23:32;;;;;;;1.50;0.93;;;24.30;58.30;;;;;;5071759;28;20440;-69
2023/09/22 05:25:58;;;;;;;1.63;1.00;;;24.30;58.20;;;;;;5072048;28;20986;-70
2023/09/22 05:28:24;;;;;;;1.20;1.00;;;24.30;58.20;;;;;;5071815;28;20415;-68
2023/09/22 05:30:50;;;;;;;1.83;1.30;;;24.30;58.20;;;;;;5071954;28;20416;-68
2023/09/22 05:33:15;;;;;;;1.90;1.30;;;24.30;58.30;;;;;;5071544;28;20205;-68
2023/09/22 05:35:41;;;;;;;1.87;1.00;;;24.30;58.20;;;;;;5071861;28;20233;-70
2023/09/22 05:38:09;;;;;;;3.00;1.07;;;24.30;58.20;;;;;;5071527;28;20173;-69
2023/09/22 05:40:35;;;;;;;1.93;1.07;;;24.30;58.30;;;;;;5071654;28;20550;-69
2023/09/22 05:43:05;;;;;;;1.40;1.03;;;24.30;58.20;;;;;;5071502;28;20936;-69
2023/09/22 05:45:31;;;;;;;1.23;0.90;;;24.30;58.20;;;;;;5071738;28;20784;-69
2023/09/22 05:47:57;;;;;;;4.03;1.00;;;24.30;58.30;;;;;;5071435;28;20424;-69
2023/09/22 05:50:25;;;;;;;2.73;1.00;;;24.30;58.30;;;;;;5069975;28;20450;-68
2023/09/22 05:52:51;;;;;;;3.57;1.07;;;24.30;58.30;;;;;;5071301;28;20260;-67
2023/09/22 05:55:19;;;;;;;1.17;1.00;;;24.30;58.30;;;;;;5071511;28;20491;-70
2023/09/22 05:57:45;;;;;;;1.97;0.93;;;24.30;58.30;;;;;;5069954;28;20424;-69
2023/09/22 06:00:18;;;;;;;1.43;0.90;;;24.30;58.30;;;;;;5071241;28;20490;-69
2023/09/22 06:02:47;;;;;;;1.27;0.90;;;24.30;58.30;;;;;;5071369;28;20437;-68
2023/09/22 06:05:14;;;;;;;2.17;1.10;;;24.30;58.30;;;;;;5071130;28;20448;-69
2023/09/22 06:07:40;;;;;;;2.23;1.17;;;24.30;58.30;;;;;;5071048;28;20417;-69
2023/09/22 06:10:06;;;;;;;1.43;1.13;;;24.30;58.20;;;;;;5071143;28;20538;-69
2023/09/22 06:12:32;;;;;;;1.57;0.90;;;24.30;58.30;;;;;;5070955;28;20217;-70
2023/09/22 06:15:00;;;;;;;1.40;0.90;;;24.30;58.30;;;;;;5071530;28;20417;-70
2023/09/22 06:17:26;;;;;;;1.57;1.00;;;24.30;58.30;;;;;;5071038;28;20169;-68
2023/09/22 06:19:52;;;;;;;1.40;1.10;;;24.30;58.30;;;;;;5070917;28;20440;-67
2023/09/22 06:22:17;;;;;;;1.30;0.90;;;24.30;58.30;;;;;;5070924;28;20568;-68
2023/09/22 06:24:43;;;;;;;2.13;1.00;;;24.30;58.30;;;;;;5073484;28;20412;-67
2023/09/22 06:27:09;;;;;;;2.13;1.00;;;24.30;58.30;;;;;;5074969;28;20197;-67
2023/09/22 06:29:34;;;;;;;1.30;1.00;;;24.30;58.30;;;;;;5074913;28;20174;-67
2023/09/22 06:32:00;;;;;;;1.40;1.10;;;24.30;58.30;;;;;;5073946;28;20721;-67
2023/09/22 06:34:25;;;;;;;1.73;1.10;;;24.30;58.40;;;;;;5070667;28;20618;-69
2023/09/22 06:36:51;;;;;;;2.03;1.00;;;24.30;58.40;;;;;;5071002;28;20197;-66
2023/09/22 06:39:16;;;;;;;2.00;0.87;;;24.30;58.30;;;;;;5085673;28;20178;-67
2023/09/22 06:41:42;;;;;;;2.87;1.23;;;24.30;58.40;;;;;;5090934;28;20649;-68
2023/09/22 06:44:08;;;;;;;1.47;1.10;;;24.30;58.40;;;;;;5089701;28;20211;-68
2023/09/22 06:46:35;;;;;;;2.03;1.10;;;24.30;58.40;;;;;;5090557;28;20204;-68
2023/09/22 06:49:05;;;;;;;1.30;0.83;;;24.30;58.40;;;;;;5089834;28;20261;-66
2023/09/22 06:51:31;;;;;;;1.60;1.17;;;24.40;58.40;;;;;;5091794;28;20469;-68
2023/09/22 06:53:57;;;;;;;1.93;1.00;;;24.30;58.40;;;;;;5096000;28;20462;-67
2023/09/22 06:56:23;;;;;;;2.53;1.40;;;24.40;58.50;;;;;;5098611;28;20781;-68
2023/09/22 06:58:49;;;;;;;1.50;1.20;;;24.40;59.00;;;;;;5097499;28;20173;-66
2023/09/22 07:01:16;;;;;;;1.37;0.90;;;24.40;58.50;;;;;;5084195;28;20207;-67
2023/09/22 07:03:43;;;;;;;1.77;1.20;;;24.40;58.50;;;;;;5076606;28;20458;-67
2023/09/22 07:06:14;;;;;;;1.40;1.00;;;24.40;58.40;;;;;;5075466;28;20440;-67
2023/09/22 07:08:43;;;;;;;1.43;1.10;;;24.40;58.50;;;;;;5073636;28;20405;-68
2023/09/22 07:11:09;;;;;;;2.10;1.17;;;24.40;58.40;;;;;;5074427;28;20435;-67
2023/09/22 07:13:40;;;;;;;1.60;1.10;;;24.40;58.50;;;;;;5075846;28;20444;-67
2023/09/22 07:16:06;;;;;;;1.20;0.90;;;24.40;58.50;;;;;;5077438;28;20413;-66
2023/09/22 07:18:32;;;;;;;1.77;1.00;;;24.40;58.50;;;;;;5078179;28;20404;-67
2023/09/22 07:20:57;;;;;;;2.17;1.20;;;24.40;58.50;;;;;;5077978;28;20603;-67
2023/09/22 07:23:24;;;;;;;1.80;1.10;;;24.30;58.40;;;;;;5077925;28;20202;-67
2023/09/22 07:26:04;;;;;;;1.50;1.00;;;24.40;58.50;;;;;;5076243;28;20208;-66
2023/09/22 07:28:31;;;;;;;2.27;1.37;;;24.40;58.50;;;;;;5078281;28;20956;-66
2023/09/22 07:30:57;;;;;;;2.00;1.00;;;24.30;58.40;;;;;;5077990;28;20491;-66
2023/09/22 07:33:30;;;;;;;2.70;1.23;;;24.30;58.40;;;;;;5077616;28;20506;-68
2023/09/22 07:35:56;;;;;;;1.80;1.10;;;24.30;58.40;;;;;;5077477;28;20458;-67
2023/09/22 07:38:21;;;;;;;1.87;1.10;;;24.30;58.40;;;;;;5077692;28;20916;-66
2023/09/22 07:40:49;;;;;;;1.50;0.90;;;24.30;58.50;;;;;;5078095;28;20245;-68
2023/09/22 07:43:14;;;;;;;1.90;1.00;;;24.40;58.50;;;;;;5082752;28;20201;-67
2023/09/22 07:45:40;;;;;;;2.37;1.30;;;24.30;58.50;;;;;;5097449;28;20514;-66
2023/09/22 07:48:06;;;;;;;1.47;1.00;;;24.30;58.40;;;;;;5097898;28;20264;-66
2023/09/22 07:50:34;;;;;;;2.33;1.13;;;24.30;58.40;;;;;;5097529;28;20195;-68
2023/09/22 07:53:00;;;;;;;1.40;1.10;;;24.30;58.40;;;;;;5097912;28;20534;-68
2023/09/22 07:55:25;;;;;;;2.97;1.70;;;24.30;58.40;;;;;;5097503;28;20485;-69
2023/09/22 07:57:51;;;;;;;1.67;1.03;;;24.30;58.30;;;;;;5097891;28;20170;-67
2023/09/22 08:00:20;;;;;;;2.50;1.40;;;24.30;58.30;;;;;;5097525;28;20176;-68
2023/09/22 08:02:46;;;;;;;1.80;1.20;;;24.30;58.30;;;;;;5096166;28;20754;-67
2023/09/22 08:05:15;;;;;;;1.30;1.20;;;24.30;58.30;;;;;;5097153;28;20498;-68
2023/09/22 08:07:42;;;;;;;1.97;1.10;;;24.30;58.40;;;;;;5096676;28;20480;-66
2023/09/22 08:10:10;;;;;;;1.50;1.07;;;24.30;58.30;;;;;;5096417;28;20416;-67
2023/09/22 08:12:41;;;;;;;3.43;1.17;;;24.30;58.40;;;;;;5096590;28;20525;-67
2023/09/22 08:15:08;;;;;;;2.50;1.10;;;24.30;58.40;;;;;;5089400;28;20825;-68
2023/09/22 08:17:34;;;;;;;1.40;1.00;;;24.30;58.40;;;;;;5086996;28;20424;-67
2023/09/22 08:20:00;;;;;;;1.30;1.10;;;24.30;58.40;;;;;;5084877;28;20455;-68
2023/09/22 08:22:26;;;;;;;1.67;1.00;;;24.30;58.40;;;;;;5086398;28;20432;-67
2023/09/22 08:24:52;;;;;;;1.23;1.00;;;24.30;58.50;;;;;;5085191;28;20879;-66
2023/09/22 08:27:19;;;;;;;1.93;0.90;;;24.30;58.40;;;;;;5076228;28;20435;-67
2023/09/22 08:29:47;;;;;;;1.83;1.03;;;24.30;58.40;;;;;;5076489;28;20504;-66
2023/09/22 08:32:13;;;;;;;2.60;1.27;;;24.30;58.40;;;;;;5076770;28;20432;-67
2023/09/22 08:34:38;;;;;;;2.03;1.00;;;24.30;58.40;;;;;;5075860;28;20459;-65
2023/09/22 08:37:04;;;;;;;2.00;1.40;;;24.30;58.50;;;;;;5076512;28;20231;-67
2023/09/22 08:39:31;;;;;;;2.90;1.10;;;24.30;58.50;;;;;;5076626;28;20179;-66
2023/09/22 08:41:58;;;;;;;1.40;1.00;;;24.30;58.50;;;;;;5076253;28;20194;-66
2023/09/22 08:44:28;;;;;;;2.93;1.00;;;24.30;58.50;;;;;;5076206;28;20416;-65
2023/09/22 08:46:54;;;;;;;2.10;1.00;;;24.30;58.50;;;;;;5076800;28;20419;-65
2023/09/22 08:49:21;;;;;;;1.97;1.10;;;24.30;58.50;;;;;;5076548;28;20404;-67
2023/09/22 08:51:50;;;;;;;1.00;0.80;;;24.30;58.50;;;;;;5076841;28;20213;-65
2023/09/22 08:54:16;;;;;;;2.53;0.97;;;24.30;58.50;;;;;;5076495;28;20464;-68
2023/09/22 08:56:43;;;;;;;1.00;0.90;;;24.30;58.50;;;;;;5075670;28;20446;-67
2023/09/22 08:59:09;;;;;;;1.33;0.93;;;24.30;58.50;;;;;;5076833;28;20177;-66
2023/09/22 09:01:35;;;;;;;1.30;0.90;;;24.30;58.50;;;;;;5076705;28;20405;-67
2023/09/22 09:04:31;;;;;;;2.50;1.00;;;24.30;58.50;;;;;;5076018;28;20269;-67
2023/09/22 09:06:56;;;;;;;1.50;1.00;;;24.30;58.50;;;;;;5073938;28;20408;-67
2023/09/22 09:09:22;;;;;;;1.40;1.00;;;24.30;58.50;;;;;;5075924;28;20416;-67
2023/09/22 09:12:02;;;;;;;1.40;0.90;;;24.30;58.50;;;;;;5086086;28;20177;-67
2023/09/22 09:14:28;;;;;;;2.23;1.10;;;24.30;58.60;;;;;;5085896;28;20194;-68
2023/09/22 09:16:57;;;;;;;2.17;1.40;;;24.30;58.60;;;;;;5083847;28;20409;-66
2023/09/22 09:19:22;;;;;;;1.90;1.10;;;24.30;58.60;;;;;;5095826;28;20844;-68
2023/09/22 09:22:05;;;;;;;1.90;0.90;;;24.30;58.50;;;;;;5094249;28;20411;-67
2023/09/22 09:24:32;;;;;;;1.67;0.90;;;24.30;58.50;;;;;;5095770;28;20218;-67
2023/09/22 09:26:57;;;;;;;1.57;1.20;;;24.30;58.50;;;;;;5095653;28;20419;-67
2023/09/22 09:29:30;;;;;;;1.50;1.10;;;24.30;58.50;;;;;;5095046;28;20904;-66
2023/09/22 09:32:00;;;;;;;1.37;1.00;;;24.30;58.50;;;;;;5095331;28;20196;-65
2023/09/22 09:34:41;;;;;;;1.60;1.10;;;24.30;58.50;;;;;;5094948;28;20971;-67
2023/09/22 09:37:14;;;;;;;1.30;0.93;;;24.30;58.80;;;;;;5095381;28;20399;-66
2023/09/22 09:39:45;;;;;;;1.60;1.10;;;24.30;58.60;;;;;;5094511;28;21028;-65
2023/09/22 09:42:19;;;;;;;3.27;1.00;;;24.30;58.50;;;;;;5095195;28;20869;-68
2023/09/22 09:44:48;;;;;;;1.40;1.10;;;24.30;58.50;;;;;;5094439;28;20400;-67
2023/09/22 09:47:37;;;;;;;2.80;1.63;;;24.30;58.50;;;;;;5095811;28;20400;-66
2023/09/22 09:50:06;;;;;;;1.50;1.13;;;24.30;58.50;;;;;;5096327;28;20388;-66
2023/09/22 09:52:57;;;;;;;1.23;1.03;;;24.30;58.50;;;;;;5095330;28;20469;-64
2023/09/22 09:55:24;;;;;;;1.20;1.00;;;24.30;58.50;;;;;;5096286;28;20392;-67
2023/09/22 09:57:53;;;;;;;2.17;1.00;;;24.30;58.60;;;;;;5095653;28;20915;-65
2023/09/22 10:00:19;;;;;;;1.87;1.13;;;24.30;58.60;;;;;;5095419;28;20755;-67
2023/09/22 10:02:47;;;;;;;2.53;1.00;;;24.30;58.60;;;;;;5095584;28;20434;-67
2023/09/22 10:05:17;;;;;;;1.07;0.80;;;24.30;58.50;;;;;;5091922;28;20420;-67
2023/09/22 10:07:45;;;;;;;1.30;1.00;;;24.30;58.50;;;;;;5083513;28;20409;-65
2023/09/22 10:10:12;;;;;;;1.97;1.37;;;24.30;58.60;;;;;;5077158;28;20420;-67
2023/09/22 10:12:38;;;;;;;2.40;1.23;;;24.30;58.50;;;;;;5074506;28;20432;-67
2023/09/22 10:15:05;;;;;;;1.10;0.90;;;24.30;58.60;;;;;;5075360;28;20412;-67
2023/09/22 10:17:31;;;;;;;1.43;1.10;;;24.30;58.50;;;;;;5074709;28;20416;-67
2023/09/22 10:20:00;;;;;;;1.50;1.00;;;24.30;58.50;;;;;;5074787;28;20435;-67
2023/09/22 10:22:29;;;;;;;1.93;1.10;;;24.30;58.60;;;;;;5075031;28;20433;-67
2023/09/22 10:25:13;;;;;;;2.13;1.13;;;24.30;58.60;;;;;;5074326;28;20459;-66
2023/09/22 10:27:57;;;;;;;1.87;1.00;;;24.30;58.60;;;;;;5073513;28;20417;-67
2023/09/22 10:30:44;;;;;;;1.20;0.90;;;24.30;58.60;;;;;;5075083;28;20429;-65
2023/09/22 10:33:16;;;;;;;2.07;1.07;;;24.30;58.60;;;;;;5074588;28;20500;-66
2023/09/22 10:35:42;;;;;;;2.37;1.10;;;24.30;58.60;;;;;;5073492;28;20405;-66
2023/09/22 10:38:10;;;;;;;2.87;1.10;;;24.30;58.60;;;;;;5074249;28;20401;-68
2023/09/22 10:40:36;;;;;;;2.03;1.13;;;24.30;58.60;;;;;;5089732;28;20448;-68
2023/09/22 10:43:03;;;;;;;2.70;0.90;;;24.30;58.60;;;;;;5094511;28;20948;-66
2023/09/22 10:45:29;;;;;;;7.07;2.47;;;24.30;58.50;;;;;;5095052;28;20419;-68
2023/09/22 10:47:58;;;;;;;2.03;0.90;;;24.30;58.50;;;;;;5094823;28;20451;-67
2023/09/22 10:50:30;;;;;;;2.60;1.37;;;24.30;58.40;;;;;;5091289;28;20504;-69
2023/09/22 10:53:06;;;;;;;2.07;1.07;;;24.30;58.40;;;;;;5075194;28;20464;-67
2023/09/22 10:55:39;;;;;;;2.10;1.10;;;24.30;58.40;;;;;;5074962;28;20416;-68
2023/09/22 10:58:20;;;;;;;2.70;1.63;;;24.30;58.30;;;;;;5086176;28;20419;-67
2023/09/22 11:00:55;;;;;;;2.40;1.30;;;24.30;58.40;;;;;;5093571;28;20534;-67
2023/09/22 11:03:21;;;;;;;1.50;1.03;;;24.30;58.40;;;;;;5081578;28;20549;-65
2023/09/22 11:06:00;;;;;;;2.03;1.20;;;24.30;58.40;;;;;;5073336;28;20863;-68
2023/09/22 11:08:26;;;;;;;2.50;1.70;;;24.30;58.40;;;;;;5072256;28;20159;-70
2023/09/22 11:10:56;;;;;;;5.97;2.30;;;24.30;58.40;;;;;;5073274;28;20408;-68
2023/09/22 11:13:22;;;;;;;3.83;2.37;;;24.30;58.40;;;;;;5072754;28;20496;-66
2023/09/22 11:15:49;;;;;;;6.37;2.60;;;24.30;58.40;;;;;;5072897;28;20404;-68
2023/09/22 11:18:20;;;;;;;4.93;2.73;;;24.30;58.40;;;;;;5073935;28;20413;-68
2023/09/22 11:20:46;;;;;;;5.80;2.80;;;24.30;58.40;;;;;;5073530;28;20433;-69
2023/09/22 11:23:11;;;;;;;5.70;2.57;;;24.30;58.40;;;;;;5073151;28;20439;-70
2023/09/22 11:25:37;;;;;;;4.90;2.10;;;24.30;58.40;;;;;;5073077;28;20178;-68
2023/09/22 11:28:03;;;;;;;6.30;2.47;;;24.30;58.40;;;;;;5073181;28;20170;-68
2023/09/22 11:30:28;;;;;;;5.47;2.50;;;24.30;58.40;;;;;;5073024;28;20171;-68
2023/09/22 11:32:57;;;;;;;3.83;2.10;;;24.30;58.40;;;;;;5072756;28;20197;-66
2023/09/22 11:35:41;;;;;;;3.20;2.10;;;24.30;58.30;;;;;;5073364;28;20519;-68
2023/09/22 11:38:27;;;;;;;4.40;2.63;;;24.30;58.30;;;;;;5073437;28;20426;-68
2023/09/22 11:41:08;;;;;;;6.90;2.77;;;24.30;58.40;;;;;;5077104;28;20381;-68
2023/09/22 11:43:38;;;;;;;4.20;2.53;;;24.30;58.40;;;;;;5074871;28;20873;-67
2023/09/22 11:46:11;;;;;;;3.80;2.20;;;24.30;58.30;;;;;;5073956;28;20435;-68
2023/09/22 11:49:00;;;;;;;4.83;2.80;;;24.30;58.40;;;;;;5074113;28;20405;-65
2023/09/22 11:51:51;;;;;;;4.20;2.27;;;24.30;58.30;;;;;;5073509;28;20909;-67
2023/09/22 11:54:21;;;;;;;4.50;2.57;;;24.30;58.40;;;;;;5073642;28;20444;-68
2023/09/22 11:56:48;;;;;;;5.50;2.87;;;24.30;58.40;;;;;;5075398;28;20436;-67
2023/09/22 11:59:17;;;;;;;5.40;3.10;;;24.30;58.40;;;;;;5074347;28;20409;-70
2023/09/22 12:01:45;;;;;;;7.37;4.50;;;24.30;58.50;;;;;;5075792;28;20408;-70
2023/09/22 12:04:11;;;;;;;9.73;5.13;;;24.30;58.50;;;;;;5076095;28;20415;-67
2023/09/22 12:06:40;;;;;;;9.43;5.13;;;24.30;58.40;;;;;;5072109;28;20416;-66
2023/09/22 12:09:06;;;;;;;11.10;5.40;;;24.30;58.50;;;;;;5073345;28;20424;-66
2023/09/22 12:11:32;;;;;;;13.53;5.57;;;24.30;58.40;;;;;;5073374;28;20404;-67
2023/09/22 12:13:58;;;;;;;8.80;5.33;;;24.30;58.50;;;;;;5073170;28;21052;-67
2023/09/22 12:16:24;;;;;;;11.73;6.43;;;24.30;58.50;;;;;;5073170;28;20405;-66
2023/09/22 12:18:50;;;;;;;15.20;7.60;;;24.30;58.50;;;;;;5073106;28;20250;-68
2023/09/22 12:21:16;;;;;;;12.63;6.57;;;24.30;58.50;;;;;;5073088;28;20527;-66
2023/09/22 12:23:41;;;;;;;11.50;6.03;;;24.30;58.50;;;;;;5073008;28;20616;-67
2023/09/22 12:26:07;;;;;;;13.33;7.20;;;24.30;58.50;;;;;;5073096;28;20181;-68
2023/09/22 12:28:33;;;;;;;9.80;5.80;;;24.30;58.50;;;;;;5073003;28;20193;-67
2023/09/22 12:30:58;;;;;;;9.43;5.07;;;24.30;58.50;;;;;;5072990;28;20674;-67
2023/09/22 12:33:24;;;;;;;13.63;5.70;;;24.30;58.50;;;;;;5072795;28;20682;-66
2023/09/22 12:35:54;;;;;;;8.77;5.00;;;24.30;58.50;;;;;;5072819;28;20174;-67
2023/09/22 12:38:23;;;;;;;9.47;4.93;;;24.30;58.50;;;;;;5071686;28;20155;-67
2023/09/22 12:40:53;;;;;;;8.80;5.20;;;24.30;58.50;;;;;;5072791;28;20408;-66
2023/09/22 12:43:19;;;;;;;13.00;4.97;;;24.30;58.50;;;;;;5072606;28;20940;-66
2023/09/22 12:45:45;;;;;;;9.27;4.70;;;24.30;58.50;;;;;;5072016;28;20404;-67
2023/09/22 12:48:11;;;;;;;11.30;5.00;;;24.30;58.50;;;;;;5071321;28;20446;-68